sensor_id;sensor_type;location;lat;lon;timestamp;pressure;altitude;pressure_sealevel;temperature;humidity
73063;BME280;61230;46.328;19.972;2023-03-23T00:01:06;100573.94;;;6.68;90.58
73063;BME280;61230;46.328;19.972;2023-03-23T00:03:37;100578.56;;;6.64;89.77
73063;BME280;61230;46.328;19.972;2023-03-23T00:06:03;100573.72;;;6.71;89.14
73063;BME280;61230;46.328;19.972;2023-03-23T00:08:35;100570.66;;;6.53;87.49
73063;BME280;61230;46.328;19.972;2023-03-23T00:11:04;100567.09;;;6.54;91.91
73063;BME280;61230;46.328;19.972;2023-03-23T00:13:31;100575.53;;;6.47;92.49
73063;BME280;61230;46.328;19.972;2023-03-23T00:15:59;100574.47;;;6.49;93.42
73063;BME280;61230;46.328;19.972;2023-03-23T00:18:26;100573.63;;;6.49;93.98
73063;BME280;61230;46.328;19.972;2023-03-23T00:20:56;100571.09;;;6.47;93.85
73063;BME280;61230;46.328;19.972;2023-03-23T00:23:25;100570.81;;;6.39;94.26
73063;BME280;61230;46.328;19.972;2023-03-23T00:25:54;100515.22;;;6.13;93.81
73063;BME280;61230;46.328;19.972;2023-03-23T00:28:25;100569.37;;;6.35;94.95
73063;BME280;61230;46.328;19.972;2023-03-23T00:30:59;100565.44;;;6.29;96.12
73063;BME280;61230;46.328;19.972;2023-03-23T00:33:29;100565.53;;;6.28;96.74
73063;BME280;61230;46.328;19.972;2023-03-23T00:35:56;100562.91;;;6.28;96.88
73063;BME280;61230;46.328;19.972;2023-03-23T00:38:23;100568.19;;;6.15;94.47
73063;BME280;61230;46.328;19.972;2023-03-23T00:40:51;100560.25;;;6.17;96.05
73063;BME280;61230;46.328;19.972;2023-03-23T00:43:19;100556.28;;;6.11;95.65
73063;BME280;61230;46.328;19.972;2023-03-23T00:45:45;100559.84;;;6.10;97.71
73063;BME280;61230;46.328;19.972;2023-03-23T00:48:20;100566.03;;;6.09;97.83
73063;BME280;61230;46.328;19.972;2023-03-23T00:50:47;100544.44;;;5.95;98.58
73063;BME280;61230;46.328;19.972;2023-03-23T00:53:14;100554.97;;;5.93;96.79
73063;BME280;61230;46.328;19.972;2023-03-23T00:55:42;100513.03;;;5.58;98.69
73063;BME280;61230;46.328;19.972;2023-03-23T00:58:09;100558.75;;;5.89;99.89
73063;BME280;61230;46.328;19.972;2023-03-23T01:00:36;100562.91;;;5.92;99.71
73063;BME280;61230;46.328;19.972;2023-03-23T01:03:04;100550.47;;;5.82;99.51
73063;BME280;61230;46.328;19.972;2023-03-23T01:05:35;100559.25;;;5.82;99.57
73063;BME280;61230;46.328;19.972;2023-03-23T01:08:03;100561.47;;;5.62;97.26
73063;BME280;61230;46.328;19.972;2023-03-23T01:10:31;100552.91;;;5.60;98.88
73063;BME280;61230;46.328;19.972;2023-03-23T01:13:06;100554.06;;;5.69;98.30
73063;BME280;61230;46.328;19.972;2023-03-23T01:15:33;100558.84;;;5.75;97.80
73063;BME280;61230;46.328;19.972;2023-03-23T01:18:00;100505.34;;;5.44;98.20
73063;BME280;61230;46.328;19.972;2023-03-23T01:20:26;100557.72;;;5.66;99.19
73063;BME280;61230;46.328;19.972;2023-03-23T01:22:55;100554.06;;;5.69;98.78
73063;BME280;61230;46.328;19.972;2023-03-23T01:25:31;100560.94;;;5.70;98.48
73063;BME280;61230;46.328;19.972;2023-03-23T01:27:58;100553.31;;;5.67;100.00
73063;BME280;61230;46.328;19.972;2023-03-23T01:30:25;100509.62;;;5.33;98.26
73063;BME280;61230;46.328;19.972;2023-03-23T01:32:53;100517.44;;;5.33;96.68
73063;BME280;61230;46.328;19.972;2023-03-23T01:35:21;100554.81;;;5.58;98.99
73063;BME280;61230;46.328;19.972;2023-03-23T01:37:47;100557.50;;;5.57;100.00
73063;BME280;61230;46.328;19.972;2023-03-23T01:40:15;100507.22;;;5.30;99.33
73063;BME280;61230;46.328;19.972;2023-03-23T01:42:42;100553.13;;;5.57;99.06
73063;BME280;61230;46.328;19.972;2023-03-23T01:51:04;100549.28;;;5.50;98.92
73063;BME280;61230;46.328;19.972;2023-03-23T01:53:37;100545.63;;;5.53;99.02
73063;BME280;61230;46.328;19.972;2023-03-23T01:56:06;100547.38;;;5.52;98.60
73063;BME280;61230;46.328;19.972;2023-03-23T01:58:37;100548.22;;;5.53;98.00
73063;BME280;61230;46.328;19.972;2023-03-23T02:01:08;100498.25;;;5.21;98.04
73063;BME280;61230;46.328;19.972;2023-03-23T02:03:41;100548.22;;;5.53;97.47
73063;BME280;61230;46.328;19.972;2023-03-23T02:06:09;100551.44;;;5.56;97.75
73063;BME280;61230;46.328;19.972;2023-03-23T02:08:37;100544.44;;;5.57;97.69
73063;BME280;61230;46.328;19.972;2023-03-23T02:11:15;100545.19;;;5.59;97.70
73063;BME280;61230;46.328;19.972;2023-03-23T02:13:43;100543.09;;;5.64;97.70
73063;BME280;61230;46.328;19.972;2023-03-23T02:24:18;100551.09;;;5.73;95.98
73063;BME280;61230;46.328;19.972;2023-03-23T02:26:57;100536.78;;;5.79;95.02
73063;BME280;61230;46.328;19.972;2023-03-23T02:29:30;100539.94;;;5.84;94.77
73063;BME280;61230;46.328;19.972;2023-03-23T02:32:31;100540.47;;;5.89;94.46
73063;BME280;61230;46.328;19.972;2023-03-23T02:35:22;100539.28;;;5.93;93.28
73063;BME280;61230;46.328;19.972;2023-03-23T02:37:55;100548.31;;;5.89;94.00
73063;BME280;61230;46.328;19.972;2023-03-23T02:40:33;100548.94;;;5.93;93.96
73063;BME280;61230;46.328;19.972;2023-03-23T02:43:02;100550.00;;;5.90;93.82
73063;BME280;61230;46.328;19.972;2023-03-23T02:45:33;100511.16;;;5.73;93.75
73063;BME280;61230;46.328;19.972;2023-03-23T02:48:02;100545.16;;;5.97;93.74
73063;BME280;61230;46.328;19.972;2023-03-23T02:50:30;100542.03;;;5.92;93.22
73063;BME280;61230;46.328;19.972;2023-03-23T02:52:59;100548.59;;;5.97;93.30
73063;BME280;61230;46.328;19.972;2023-03-23T02:55:28;100556.44;;;5.72;96.36
73063;BME280;61230;46.328;19.972;2023-03-23T02:57:57;100558.25;;;5.59;97.02
73063;BME280;61230;46.328;19.972;2023-03-23T03:00:24;100563.66;;;5.43;96.65
73063;BME280;61230;46.328;19.972;2023-03-23T03:02:55;100567.31;;;5.28;98.08
73063;BME280;61230;46.328;19.972;2023-03-23T03:10:58;100559.16;;;5.07;100.00
73063;BME280;61230;46.328;19.972;2023-03-23T03:16:20;100558.63;;;4.63;99.44
73063;BME280;61230;46.328;19.972;2023-03-23T03:21:38;100566.75;;;4.85;100.00
73063;BME280;61230;46.328;19.972;2023-03-23T03:24:08;100565.72;;;4.88;99.56
73063;BME280;61230;46.328;19.972;2023-03-23T03:26:39;100517.34;;;4.57;100.00
73063;BME280;61230;46.328;19.972;2023-03-23T03:29:08;100516.94;;;4.50;100.00
73063;BME280;61230;46.328;19.972;2023-03-23T03:31:39;100576.34;;;4.85;100.00
73063;BME280;61230;46.328;19.972;2023-03-23T03:34:13;100573.09;;;4.81;100.00
73063;BME280;61230;46.328;19.972;2023-03-23T03:36:45;100577.25;;;4.84;100.00
73063;BME280;61230;46.328;19.972;2023-03-23T03:39:14;100574.44;;;4.87;100.00
73063;BME280;61230;46.328;19.972;2023-03-23T03:41:43;100571.97;;;4.85;100.00
73063;BME280;61230;46.328;19.972;2023-03-23T03:44:11;100572.34;;;4.79;99.85
73063;BME280;61230;46.328;19.972;2023-03-23T03:46:38;100574.12;;;4.79;99.80
73063;BME280;61230;46.328;19.972;2023-03-23T03:49:07;100583.38;;;4.70;99.87
73063;BME280;61230;46.328;19.972;2023-03-23T03:51:34;100571.31;;;4.82;99.53
73063;BME280;61230;46.328;19.972;2023-03-23T03:54:02;100576.72;;;4.79;99.68
73063;BME280;61230;46.328;19.972;2023-03-23T03:56:29;100574.78;;;4.82;99.49
73063;BME280;61230;46.328;19.972;2023-03-23T03:58:59;100525.37;;;4.54;99.15
73063;BME280;61230;46.328;19.972;2023-03-23T04:01:26;100526.84;;;4.58;99.34
73063;BME280;61230;46.328;19.972;2023-03-23T04:03:52;100576.94;;;4.88;99.91
73063;BME280;61230;46.328;19.972;2023-03-23T04:06:20;100572.69;;;4.87;100.00
73063;BME280;61230;46.328;19.972;2023-03-23T04:08:47;100577.69;;;4.90;100.00
73063;BME280;61230;46.328;19.972;2023-03-23T04:11:14;100567.69;;;4.97;100.00
73063;BME280;61230;46.328;19.972;2023-03-23T04:13:41;100576.47;;;5.08;99.56
73063;BME280;61230;46.328;19.972;2023-03-23T04:16:08;100575.84;;;5.17;99.30
73063;BME280;61230;46.328;19.972;2023-03-23T04:18:35;100580.56;;;5.25;98.97
73063;BME280;61230;46.328;19.972;2023-03-23T04:21:04;100573.16;;;5.19;99.84
73063;BME280;61230;46.328;19.972;2023-03-23T04:23:34;100574.06;;;5.05;99.48
73063;BME280;61230;46.328;19.972;2023-03-23T04:26:03;100581.69;;;4.96;99.47
73063;BME280;61230;46.328;19.972;2023-03-23T04:28:31;100572.78;;;4.86;98.08
73063;BME280;61230;46.328;19.972;2023-03-23T04:31:02;100578.28;;;4.81;98.96
73063;BME280;61230;46.328;19.972;2023-03-23T04:33:29;100530.44;;;4.16;99.28
73063;BME280;61230;46.328;19.972;2023-03-23T04:35:58;100530.19;;;4.33;98.94
73063;BME280;61230;46.328;19.972;2023-03-23T04:38:28;100571.38;;;4.68;98.36
73063;BME280;61230;46.328;19.972;2023-03-23T04:40:57;100577.78;;;4.76;99.90
73063;BME280;61230;46.328;19.972;2023-03-23T04:43:25;100573.69;;;4.72;99.53
73063;BME280;61230;46.328;19.972;2023-03-23T04:45:57;100575.09;;;4.63;98.81
73063;BME280;61230;46.328;19.972;2023-03-23T04:48:29;100545.25;;;4.42;97.85
73063;BME280;61230;46.328;19.972;2023-03-23T04:50:56;100583.31;;;4.57;99.90
73063;BME280;61230;46.328;19.972;2023-03-23T04:53:28;100576.34;;;4.58;100.00
73063;BME280;61230;46.328;19.972;2023-03-23T04:55:55;100585.09;;;4.57;100.00
73063;BME280;61230;46.328;19.972;2023-03-23T04:58:21;100593.94;;;4.54;100.00
73063;BME280;61230;46.328;19.972;2023-03-23T05:00:51;100584.88;;;4.60;99.06
73063;BME280;61230;46.328;19.972;2023-03-23T05:03:19;100588.00;;;4.52;98.12
73063;BME280;61230;46.328;19.972;2023-03-23T05:05:46;100532.19;;;4.16;98.41
73063;BME280;61230;46.328;19.972;2023-03-23T05:08:19;100588.34;;;4.60;98.60
73063;BME280;61230;46.328;19.972;2023-03-23T05:10:57;100589.91;;;4.63;98.33
73063;BME280;61230;46.328;19.972;2023-03-23T05:13:24;100589.97;;;4.76;98.88
73063;BME280;61230;46.328;19.972;2023-03-23T05:15:51;100589.22;;;4.74;99.00
73063;BME280;61230;46.328;19.972;2023-03-23T05:18:18;100589.75;;;4.79;98.74
73063;BME280;61230;46.328;19.972;2023-03-23T05:20:47;100594.03;;;4.80;98.93
73063;BME280;61230;46.328;19.972;2023-03-23T05:23:15;100586.37;;;4.91;98.34
73063;BME280;61230;46.328;19.972;2023-03-23T05:25:42;100594.38;;;4.88;98.21
73063;BME280;61230;46.328;19.972;2023-03-23T05:28:10;100596.53;;;5.08;97.46
73063;BME280;61230;46.328;19.972;2023-03-23T05:30:38;100604.78;;;5.27;97.48
73063;BME280;61230;46.328;19.972;2023-03-23T05:33:06;100614.41;;;5.39;96.89
73063;BME280;61230;46.328;19.972;2023-03-23T05:35:33;100602.47;;;5.48;96.92
73063;BME280;61230;46.328;19.972;2023-03-23T05:38:00;100603.13;;;5.64;97.40
73063;BME280;61230;46.328;19.972;2023-03-23T05:40:28;100602.81;;;5.81;97.03
73063;BME280;61230;46.328;19.972;2023-03-23T05:42:55;100615.78;;;5.95;96.73
73063;BME280;61230;46.328;19.972;2023-03-23T05:45:25;100559.69;;;5.75;96.56
73063;BME280;61230;46.328;19.972;2023-03-23T05:47:52;100614.88;;;6.20;95.73
73063;BME280;61230;46.328;19.972;2023-03-23T05:50:20;100562.06;;;6.04;95.49
73063;BME280;61230;46.328;19.972;2023-03-23T05:52:47;100611.25;;;6.46;95.47
73063;BME280;61230;46.328;19.972;2023-03-23T05:55:14;100616.13;;;6.63;95.11
73063;BME280;61230;46.328;19.972;2023-03-23T05:57:42;100617.22;;;6.72;94.52
73063;BME280;61230;46.328;19.972;2023-03-23T06:00:12;100598.34;;;6.79;94.12
73063;BME280;61230;46.328;19.972;2023-03-23T06:02:48;100626.38;;;7.01;93.59
73063;BME280;61230;46.328;19.972;2023-03-23T06:05:15;100619.94;;;7.18;92.52
73063;BME280;61230;46.328;19.972;2023-03-23T06:07:43;100621.50;;;7.31;91.93
73063;BME280;61230;46.328;19.972;2023-03-23T06:10:10;100622.25;;;7.44;91.29
73063;BME280;61230;46.328;19.972;2023-03-23T06:12:39;100619.41;;;7.59;90.81
73063;BME280;61230;46.328;19.972;2023-03-23T06:15:06;100629.91;;;7.70;90.42
73063;BME280;61230;46.328;19.972;2023-03-23T06:17:37;100629.69;;;7.84;89.45
73063;BME280;61230;46.328;19.972;2023-03-23T06:20:06;100624.19;;;7.98;88.70
73063;BME280;61230;46.328;19.972;2023-03-23T06:22:37;100626.72;;;8.10;88.44
73063;BME280;61230;46.328;19.972;2023-03-23T06:25:06;100625.41;;;8.27;87.65
73063;BME280;61230;46.328;19.972;2023-03-23T06:27:34;100624.22;;;8.42;86.81
73063;BME280;61230;46.328;19.972;2023-03-23T06:30:03;100622.03;;;8.58;86.59
73063;BME280;61230;46.328;19.972;2023-03-23T06:32:31;100619.00;;;8.74;86.37
73063;BME280;61230;46.328;19.972;2023-03-23T06:34:58;100622.16;;;8.89;85.99
73063;BME280;61230;46.328;19.972;2023-03-23T06:37:27;100620.91;;;9.04;85.57
73063;BME280;61230;46.328;19.972;2023-03-23T06:39:54;100633.87;;;9.16;85.40
73063;BME280;61230;46.328;19.972;2023-03-23T06:42:22;100631.75;;;9.31;85.65
73063;BME280;61230;46.328;19.972;2023-03-23T06:44:51;100635.75;;;9.46;85.08
73063;BME280;61230;46.328;19.972;2023-03-23T06:47:18;100626.25;;;9.55;84.16
73063;BME280;61230;46.328;19.972;2023-03-23T06:49:45;100632.47;;;9.74;83.94
73063;BME280;61230;46.328;19.972;2023-03-23T06:52:28;100627.56;;;9.91;83.80
73063;BME280;61230;46.328;19.972;2023-03-23T06:54:58;100634.81;;;10.08;83.30
73063;BME280;61230;46.328;19.972;2023-03-23T06:57:25;100585.13;;;9.95;82.86
73063;BME280;61230;46.328;19.972;2023-03-23T06:59:52;100637.22;;;10.41;82.10
73063;BME280;61230;46.328;19.972;2023-03-23T07:02:19;100630.47;;;10.58;81.72
73063;BME280;61230;46.328;19.972;2023-03-23T07:04:46;100633.37;;;10.74;81.34
73063;BME280;61230;46.328;19.972;2023-03-23T07:07:13;100634.50;;;10.90;80.93
73063;BME280;61230;46.328;19.972;2023-03-23T07:09:41;100596.84;;;10.80;78.97
73063;BME280;61230;46.328;19.972;2023-03-23T07:12:08;100637.44;;;11.26;77.92
73063;BME280;61230;46.328;19.972;2023-03-23T07:14:36;100637.56;;;11.43;78.15
73063;BME280;61230;46.328;19.972;2023-03-23T07:17:03;100643.06;;;11.60;78.70
73063;BME280;61230;46.328;19.972;2023-03-23T07:19:31;100630.84;;;11.68;76.63
73063;BME280;61230;46.328;19.972;2023-03-23T07:21:58;100616.56;;;11.80;75.97
73063;BME280;61230;46.328;19.972;2023-03-23T07:24:25;100643.94;;;12.06;74.70
73063;BME280;61230;46.328;19.972;2023-03-23T07:26:53;100642.78;;;12.19;73.76
73063;BME280;61230;46.328;19.972;2023-03-23T07:29:20;100641.03;;;12.37;73.29
73063;BME280;61230;46.328;19.972;2023-03-23T07:31:47;100643.87;;;12.53;73.22
73063;BME280;61230;46.328;19.972;2023-03-23T07:34:14;100641.41;;;12.69;72.77
73063;BME280;61230;46.328;19.972;2023-03-23T07:36:42;100636.97;;;12.87;71.95
73063;BME280;61230;46.328;19.972;2023-03-23T07:39:09;100628.22;;;13.04;70.33
73063;BME280;61230;46.328;19.972;2023-03-23T07:41:36;100604.53;;;12.95;68.69
73063;BME280;61230;46.328;19.972;2023-03-23T07:44:04;100633.44;;;13.32;68.66
73063;BME280;61230;46.328;19.972;2023-03-23T07:46:32;100633.72;;;13.46;68.05
73063;BME280;61230;46.328;19.972;2023-03-23T07:49:00;100635.28;;;13.57;67.41
73063;BME280;61230;46.328;19.972;2023-03-23T07:51:32;100593.25;;;13.46;67.54
73063;BME280;61230;46.328;19.972;2023-03-23T07:53:59;100639.12;;;13.88;67.79
73063;BME280;61230;46.328;19.972;2023-03-23T07:56:28;100642.53;;;14.06;70.03
73063;BME280;61230;46.328;19.972;2023-03-23T07:58:55;100648.50;;;14.42;72.83
73063;BME280;61230;46.328;19.972;2023-03-23T08:01:22;100646.06;;;14.49;69.62
73063;BME280;61230;46.328;19.972;2023-03-23T08:03:52;100637.69;;;14.69;68.95
73063;BME280;61230;46.328;19.972;2023-03-23T08:06:22;100645.69;;;14.85;69.75
73063;BME280;61230;46.328;19.972;2023-03-23T08:08:50;100637.09;;;15.00;67.08
73063;BME280;61230;46.328;19.972;2023-03-23T08:11:20;100645.56;;;15.11;64.51
73063;BME280;61230;46.328;19.972;2023-03-23T08:13:46;100632.94;;;15.21;65.60
73063;BME280;61230;46.328;19.972;2023-03-23T08:16:13;100637.13;;;15.32;62.91
73063;BME280;61230;46.328;19.972;2023-03-23T08:18:41;100600.16;;;15.22;65.43
73063;BME280;61230;46.328;19.972;2023-03-23T08:21:07;100589.22;;;15.33;64.08
73063;BME280;61230;46.328;19.972;2023-03-23T08:23:36;100633.31;;;15.75;61.96
73063;BME280;61230;46.328;19.972;2023-03-23T08:26:05;100629.16;;;15.80;61.65
73063;BME280;61230;46.328;19.972;2023-03-23T08:28:37;100626.97;;;15.92;63.46
73063;BME280;61230;46.328;19.972;2023-03-23T08:31:10;100628.56;;;16.01;61.22
73063;BME280;61230;46.328;19.972;2023-03-23T08:33:38;100621.94;;;16.05;59.29
73063;BME280;61230;46.328;19.972;2023-03-23T08:36:08;100634.16;;;16.22;58.81
73063;BME280;61230;46.328;19.972;2023-03-23T08:38:36;100630.78;;;16.36;59.08
73063;BME280;61230;46.328;19.972;2023-03-23T08:41:05;100643.38;;;16.42;60.27
73063;BME280;61230;46.328;19.972;2023-03-23T08:43:35;100636.19;;;16.59;58.83
73063;BME280;61230;46.328;19.972;2023-03-23T08:46:02;100632.44;;;16.76;59.22
73063;BME280;61230;46.328;19.972;2023-03-23T08:48:33;100631.34;;;16.93;57.19
73063;BME280;61230;46.328;19.972;2023-03-23T08:51:03;100636.09;;;16.98;57.14
73063;BME280;61230;46.328;19.972;2023-03-23T08:53:30;100640.50;;;17.13;55.64
73063;BME280;61230;46.328;19.972;2023-03-23T08:56:09;100626.31;;;17.21;54.33
73063;BME280;61230;46.328;19.972;2023-03-23T08:58:37;100630.84;;;17.35;54.00
73063;BME280;61230;46.328;19.972;2023-03-23T09:01:06;100588.25;;;17.20;52.48
73063;BME280;61230;46.328;19.972;2023-03-23T09:03:34;100632.06;;;17.47;47.96
73063;BME280;61230;46.328;19.972;2023-03-23T09:06:07;100624.94;;;17.48;49.05
73063;BME280;61230;46.328;19.972;2023-03-23T09:08:36;100635.53;;;17.56;49.60
73063;BME280;61230;46.328;19.972;2023-03-23T09:11:05;100631.03;;;17.56;49.16
73063;BME280;61230;46.328;19.972;2023-03-23T09:13:34;100629.87;;;17.73;49.80
73063;BME280;61230;46.328;19.972;2023-03-23T09:16:01;100629.69;;;17.90;50.14
73063;BME280;61230;46.328;19.972;2023-03-23T09:18:28;100634.09;;;17.97;48.48
73063;BME280;61230;46.328;19.972;2023-03-23T09:20:54;100633.84;;;18.07;47.65
73063;BME280;61230;46.328;19.972;2023-03-23T09:23:21;100602.13;;;17.97;47.88
73063;BME280;61230;46.328;19.972;2023-03-23T09:25:48;100632.00;;;18.22;46.74
73063;BME280;61230;46.328;19.972;2023-03-23T09:28:15;100633.41;;;18.39;47.44
73063;BME280;61230;46.328;19.972;2023-03-23T09:30:42;100635.09;;;18.40;45.51
73063;BME280;61230;46.328;19.972;2023-03-23T09:33:10;100628.38;;;18.44;45.78
73063;BME280;61230;46.328;19.972;2023-03-23T09:35:36;100625.62;;;18.52;46.25
73063;BME280;61230;46.328;19.972;2023-03-23T09:38:05;100624.03;;;18.72;45.38
73063;BME280;61230;46.328;19.972;2023-03-23T09:40:49;100619.06;;;18.69;45.19
73063;BME280;61230;46.328;19.972;2023-03-23T09:43:38;100613.03;;;18.82;46.58
73063;BME280;61230;46.328;19.972;2023-03-23T09:49:33;100611.72;;;19.14;44.45
73063;BME280;61230;46.328;19.972;2023-03-23T09:52:13;100610.84;;;19.07;44.21
73063;BME280;61230;46.328;19.972;2023-03-23T09:54:43;100605.19;;;19.16;44.57
73063;BME280;61230;46.328;19.972;2023-03-23T10:00:02;100612.56;;;19.14;42.30
73063;BME280;61230;46.328;19.972;2023-03-23T10:02:46;100611.34;;;19.38;42.70
73063;BME280;61230;46.328;19.972;2023-03-23T10:05:33;100608.78;;;19.30;42.95
73063;BME280;61230;46.328;19.972;2023-03-23T10:08:17;100609.56;;;19.45;42.59
73063;BME280;61230;46.328;19.972;2023-03-23T10:11:32;100549.13;;;19.10;40.47
73063;BME280;61230;46.328;19.972;2023-03-23T10:16:38;100608.88;;;19.64;42.58
73063;BME280;61230;46.328;19.972;2023-03-23T10:21:39;100611.06;;;19.82;41.32
73063;BME280;61230;46.328;19.972;2023-03-23T10:24:10;100616.50;;;19.95;40.83
73063;BME280;61230;46.328;19.972;2023-03-23T10:29:34;100610.78;;;20.04;40.28
73063;BME280;61230;46.328;19.972;2023-03-23T10:34:54;100608.12;;;20.04;39.92
73063;BME280;61230;46.328;19.972;2023-03-23T10:37:26;100606.97;;;20.20;40.06
73063;BME280;61230;46.328;19.972;2023-03-23T10:39:56;100602.16;;;20.43;39.09
73063;BME280;61230;46.328;19.972;2023-03-23T10:42:35;100607.38;;;20.64;39.50
73063;BME280;61230;46.328;19.972;2023-03-23T10:45:21;100564.50;;;20.38;38.72
73063;BME280;61230;46.328;19.972;2023-03-23T10:48:21;100589.91;;;20.69;38.65
73063;BME280;61230;46.328;19.972;2023-03-23T10:50:54;100588.91;;;20.89;38.80
73063;BME280;61230;46.328;19.972;2023-03-23T10:53:37;100578.19;;;20.76;38.92
73063;BME280;61230;46.328;19.972;2023-03-23T10:56:05;100591.47;;;20.43;37.90
73063;BME280;61230;46.328;19.972;2023-03-23T10:58:45;100581.06;;;20.81;38.28
73063;BME280;61230;46.328;19.972;2023-03-23T11:01:12;100580.47;;;20.92;38.24
73063;BME280;61230;46.328;19.972;2023-03-23T11:03:42;100580.50;;;21.05;38.41
73063;BME280;61230;46.328;19.972;2023-03-23T11:06:17;100567.56;;;21.15;37.70
73063;BME280;61230;46.328;19.972;2023-03-23T11:11:26;100535.66;;;21.14;37.88
73063;BME280;61230;46.328;19.972;2023-03-23T11:13:58;100564.66;;;21.56;36.47
73063;BME280;61230;46.328;19.972;2023-03-23T11:16:30;100528.44;;;21.34;36.01
73063;BME280;61230;46.328;19.972;2023-03-23T11:18:59;100561.72;;;21.77;36.81
73063;BME280;61230;46.328;19.972;2023-03-23T11:21:27;100556.59;;;21.76;36.58
73063;BME280;61230;46.328;19.972;2023-03-23T11:23:59;100553.28;;;21.87;35.97
73063;BME280;61230;46.328;19.972;2023-03-23T11:26:29;100554.69;;;21.83;35.83
73063;BME280;61230;46.328;19.972;2023-03-23T11:29:12;100547.31;;;21.72;35.39
73063;BME280;61230;46.328;19.972;2023-03-23T11:31:52;100541.94;;;21.85;35.92
73063;BME280;61230;46.328;19.972;2023-03-23T11:34:25;100533.91;;;21.92;35.72
73063;BME280;61230;46.328;19.972;2023-03-23T11:37:06;100531.25;;;22.36;34.62
73063;BME280;61230;46.328;19.972;2023-03-23T11:45:30;100506.22;;;22.42;35.50
73063;BME280;61230;46.328;19.972;2023-03-23T11:51:00;100508.88;;;22.49;34.19
73063;BME280;61230;46.328;19.972;2023-03-23T11:58:58;100496.41;;;22.61;34.11
73063;BME280;61230;46.328;19.972;2023-03-23T12:04:37;100488.00;;;22.51;33.50
73063;BME280;61230;46.328;19.972;2023-03-23T12:07:35;100492.47;;;22.32;34.87
73063;BME280;61230;46.328;19.972;2023-03-23T12:13:34;100492.03;;;22.35;34.82
73063;BME280;61230;46.328;19.972;2023-03-23T12:16:15;100482.41;;;22.59;34.11
73063;BME280;61230;46.328;19.972;2023-03-23T12:19:10;100479.94;;;22.88;34.08
73063;BME280;61230;46.328;19.972;2023-03-23T12:25:00;100474.47;;;23.20;33.81
73063;BME280;61230;46.328;19.972;2023-03-23T12:27:44;100469.91;;;23.02;33.38
73063;BME280;61230;46.328;19.972;2023-03-23T12:30:37;100470.41;;;22.93;33.56
73063;BME280;61230;46.328;19.972;2023-03-23T12:38:53;100470.53;;;23.22;33.46
73063;BME280;61230;46.328;19.972;2023-03-23T12:41:35;100448.91;;;22.37;33.88
73063;BME280;61230;46.328;19.972;2023-03-23T12:44:08;100458.44;;;22.32;35.19
73063;BME280;61230;46.328;19.972;2023-03-23T12:46:52;100461.56;;;22.61;34.52
73063;BME280;61230;46.328;19.972;2023-03-23T12:49:46;100419.78;;;22.15;35.25
73063;BME280;61230;46.328;19.972;2023-03-23T12:55:19;100451.44;;;22.31;35.51
73063;BME280;61230;46.328;19.972;2023-03-23T12:58:04;100445.88;;;22.58;34.96
73063;BME280;61230;46.328;19.972;2023-03-23T13:03:33;100444.72;;;22.78;34.61
73063;BME280;61230;46.328;19.972;2023-03-23T13:06:30;100436.13;;;22.39;35.02
73063;BME280;61230;46.328;19.972;2023-03-23T13:09:07;100444.03;;;21.83;35.78
73063;BME280;61230;46.328;19.972;2023-03-23T13:11:40;100428.00;;;21.76;36.59
73063;BME280;61230;46.328;19.972;2023-03-23T13:14:50;100431.53;;;22.14;35.31
73063;BME280;61230;46.328;19.972;2023-03-23T13:20:11;100428.38;;;22.55;35.92
73063;BME280;61230;46.328;19.972;2023-03-23T13:23:11;100422.31;;;22.04;35.38
73063;BME280;61230;46.328;19.972;2023-03-23T13:26:01;100415.16;;;21.91;35.77
73063;BME280;61230;46.328;19.972;2023-03-23T13:28:32;100427.37;;;21.87;35.54
73063;BME280;61230;46.328;19.972;2023-03-23T13:31:01;100422.47;;;21.71;35.88
73063;BME280;61230;46.328;19.972;2023-03-23T13:33:30;100431.66;;;21.31;36.40
73063;BME280;61230;46.328;19.972;2023-03-23T13:36:10;100426.97;;;21.19;36.33
73063;BME280;61230;46.328;19.972;2023-03-23T13:38:43;100435.34;;;21.36;37.16
73063;BME280;61230;46.328;19.972;2023-03-23T13:41:12;100431.25;;;21.34;37.14
73063;BME280;61230;46.328;19.972;2023-03-23T13:43:41;100439.69;;;21.24;36.73
73063;BME280;61230;46.328;19.972;2023-03-23T13:48:47;100429.63;;;21.19;36.19
73063;BME280;61230;46.328;19.972;2023-03-23T13:54:06;100419.13;;;21.31;36.95
73063;BME280;61230;46.328;19.972;2023-03-23T13:56:55;100418.94;;;21.19;36.55
73063;BME280;61230;46.328;19.972;2023-03-23T14:02:21;100423.63;;;21.31;37.94
73063;BME280;61230;46.328;19.972;2023-03-23T14:04:53;100423.87;;;21.16;38.04
73063;BME280;61230;46.328;19.972;2023-03-23T14:07:20;100418.72;;;21.01;38.19
73063;BME280;61230;46.328;19.972;2023-03-23T14:09:47;100416.87;;;21.15;38.12
73063;BME280;61230;46.328;19.972;2023-03-23T14:12:18;100411.50;;;21.15;38.10
73063;BME280;61230;46.328;19.972;2023-03-23T14:14:50;100381.91;;;20.84;38.06
73063;BME280;61230;46.328;19.972;2023-03-23T14:17:22;100412.38;;;20.83;38.58
73063;BME280;61230;46.328;19.972;2023-03-23T14:19:52;100418.34;;;20.65;38.90
73063;BME280;61230;46.328;19.972;2023-03-23T14:22:35;100417.31;;;20.66;38.24
73063;BME280;61230;46.328;19.972;2023-03-23T14:27:39;100413.63;;;20.54;39.55
73063;BME280;61230;46.328;19.972;2023-03-23T14:30:13;100417.50;;;20.38;39.23
73063;BME280;61230;46.328;19.972;2023-03-23T14:32:40;100418.53;;;20.31;39.52
73063;BME280;61230;46.328;19.972;2023-03-23T14:35:13;100425.53;;;20.32;39.98
73063;BME280;61230;46.328;19.972;2023-03-23T14:37:43;100413.78;;;20.33;40.26
73063;BME280;61230;46.328;19.972;2023-03-23T14:40:16;100419.16;;;20.26;39.96